createdAt,value
2022-09-16T00:04:12.344Z,97254.00
2022-09-16T00:09:15.037Z,97259.00
2022-09-16T00:14:17.752Z,97267.00
2022-09-16T00:19:20.384Z,97258.00
2022-09-16T00:24:23.067Z,97268.00
2022-09-16T00:29:25.872Z,97265.00
2022-09-16T00:34:28.532Z,97266.00
2022-09-16T00:39:31.396Z,97266.00
2022-09-16T00:45:03.163Z,97266.00
2022-09-16T00:50:23.521Z,97267.00
2022-09-16T00:55:30.855Z,97261.00
2022-09-16T01:00:33.574Z,97265.00
2022-09-16T01:05:37.974Z,97267.00
2022-09-16T01:10:42.976Z,97261.00
2022-09-16T01:15:52.188Z,97263.00
2022-09-16T01:21:13.739Z,97266.00
2022-09-16T01:26:37.568Z,97260.00
2022-09-16T01:31:53.151Z,97271.00
2022-09-16T01:37:29.974Z,97261.00
2022-09-16T01:42:59.700Z,97254.00
2022-09-16T01:48:24.325Z,97252.00
2022-09-16T01:53:36.104Z,97264.00
2022-09-16T01:58:41.488Z,97261.00
2022-09-16T02:03:49.540Z,97254.00
2022-09-16T02:09:04.777Z,97255.00
2022-09-16T02:14:24.184Z,97247.00
2022-09-16T02:19:32.540Z,97238.00
2022-09-16T02:24:36.629Z,97241.00
2022-09-16T02:30:08.976Z,97243.00
2022-09-16T02:35:15.812Z,97248.00
2022-09-16T02:40:33.219Z,97239.00
2022-09-16T02:46:07.058Z,97247.00
2022-09-16T02:51:30.946Z,97236.00
2022-09-16T02:56:39.456Z,97249.00
2022-09-16T03:01:45.426Z,97261.00
2022-09-16T03:06:48.835Z,97266.00
2022-09-16T03:12:15.998Z,97249.00
2022-09-16T03:17:33.700Z,97254.00
2022-09-16T03:22:55.954Z,97252.00
2022-09-16T03:28:43.822Z,97255.00
2022-09-16T03:34:09.837Z,97255.00
2022-09-16T03:39:13.333Z,97256.00
2022-09-16T03:44:15.957Z,97258.00
2022-09-16T03:49:18.620Z,97258.00
2022-09-16T03:54:21.592Z,97246.00
2022-09-16T03:59:24.287Z,97256.00
2022-09-16T04:04:26.975Z,97233.00
2022-09-16T04:09:29.642Z,97243.00
2022-09-16T04:14:32.921Z,97239.00
2022-09-16T04:19:35.736Z,97240.00
2022-09-16T04:24:38.387Z,97241.00
2022-09-16T04:29:41.066Z,97241.00
2022-09-16T04:34:43.835Z,97246.00
2022-09-16T04:39:47.019Z,97248.00
2022-09-16T04:44:49.691Z,97240.00
2022-09-16T04:49:52.340Z,97236.00
2022-09-16T04:54:57.416Z,97244.00
2022-09-16T05:00:01.080Z,97234.00
2022-09-16T05:05:03.767Z,97245.00
2022-09-16T05:10:06.901Z,97248.00
2022-09-16T05:15:09.903Z,97245.00
2022-09-16T05:20:13.029Z,97260.00
2022-09-16T05:25:15.703Z,97252.00
2022-09-16T05:30:21.629Z,97263.00
2022-09-16T05:35:28.554Z,97267.00
2022-09-16T05:40:31.468Z,97262.00
2022-09-16T05:45:34.764Z,97272.00
2022-09-16T05:50:37.382Z,97258.00
2022-09-16T05:55:40.067Z,97265.00
2022-09-16T06:00:42.716Z,97262.00
2022-09-16T06:05:45.998Z,97254.00
2022-09-16T06:10:48.783Z,97265.00
2022-09-16T06:15:54.779Z,97270.00
2022-09-16T06:20:58.544Z,97271.00
2022-09-16T06:26:22.653Z,97272.00
2022-09-16T06:31:27.780Z,97264.00
2022-09-16T06:36:33.044Z,97270.00
2022-09-16T06:41:35.824Z,97285.00
2022-09-16T06:46:38.917Z,97281.00
2022-09-16T06:51:41.722Z,97277.00
2022-09-16T06:56:44.303Z,97265.00
2022-09-16T07:01:47.053Z,97273.00
2022-09-16T07:07:08.561Z,97269.00
2022-09-16T07:12:16.242Z,97263.00
2022-09-16T07:17:23.818Z,97254.00
2022-09-16T07:22:26.486Z,97264.00
2022-09-16T07:27:31.446Z,97264.00
2022-09-16T07:32:34.200Z,97260.00
2022-09-16T07:37:40.619Z,97261.00
2022-09-16T07:42:45.472Z,97263.00
2022-09-16T07:47:50.399Z,97265.00
2022-09-16T07:52:56.961Z,97264.00
2022-09-16T07:57:59.728Z,97272.00
2022-09-16T08:03:02.448Z,97271.00
2022-09-16T08:08:05.396Z,97263.00
2022-09-16T08:13:08.931Z,97272.00
2022-09-16T08:18:11.657Z,97265.00
2022-09-16T08:23:14.757Z,97258.00
2022-09-16T08:28:18.261Z,97261.00
2022-09-16T08:33:23.410Z,97267.00
2022-09-16T08:38:26.503Z,97261.00
2022-09-16T08:43:50.128Z,97268.00
2022-09-16T08:49:29.884Z,97262.00
2022-09-16T08:54:45.038Z,97267.00
2022-09-16T08:59:54.300Z,97274.00
2022-09-16T09:04:57.040Z,97276.00
2022-09-16T09:10:18.543Z,97280.00
2022-09-16T09:15:37.634Z,97266.00
2022-09-16T09:20:46.242Z,97262.00
2022-09-16T09:26:06.430Z,97255.00
2022-09-16T09:31:15.390Z,97257.00
2022-09-16T09:36:29.949Z,97255.00
2022-09-16T09:41:39.515Z,97242.00
2022-09-16T09:46:48.390Z,97243.00
2022-09-16T09:51:58.366Z,97236.00
2022-09-16T09:57:06.060Z,97240.00
2022-09-16T10:02:15.835Z,97232.00
2022-09-16T10:07:21.826Z,97230.00
2022-09-16T10:12:33.279Z,97218.00
2022-09-16T10:17:36.609Z,97220.00
2022-09-16T10:22:41.334Z,97222.00
2022-09-16T10:27:53.969Z,97219.00
2022-09-16T10:33:05.570Z,97248.00
2022-09-16T10:38:20.498Z,97256.00
2022-09-16T10:43:25.362Z,97245.00
2022-09-16T10:48:31.107Z,97243.00
2022-09-16T10:53:39.581Z,97247.00
2022-09-16T10:58:43.825Z,97256.00
2022-09-16T11:03:55.478Z,97246.00
2022-09-16T11:09:19.419Z,97228.00
2022-09-16T11:14:33.469Z,97232.00
2022-09-16T11:19:41.694Z,97230.00
2022-09-16T11:24:51.554Z,97225.00
2022-09-16T11:29:57.283Z,97236.00
2022-09-16T11:35:32.480Z,97223.00
2022-09-16T11:40:48.751Z,97220.00
2022-09-16T11:46:12.192Z,97220.00
2022-09-16T11:51:42.200Z,97237.00
2022-09-16T11:56:49.132Z,97230.00
2022-09-16T12:02:14.081Z,97224.00
2022-09-16T12:07:16.735Z,97219.00
2022-09-16T12:12:38.967Z,97219.00
2022-09-16T12:17:51.004Z,97216.00
2022-09-16T12:23:24.306Z,97217.00
2022-09-16T12:28:43.918Z,97204.00
2022-09-16T12:33:59.304Z,97213.00
2022-09-16T12:39:02.464Z,97212.00
2022-09-16T12:44:34.501Z,97215.00
2022-09-16T12:49:46.459Z,97201.00
2022-09-16T12:55:10.889Z,97195.00
2022-09-16T13:00:25.773Z,97183.00
2022-09-16T13:05:50.367Z,97190.00
2022-09-16T13:16:31.316Z,97176.00
2022-09-16T13:21:45.258Z,97176.00
2022-09-16T13:26:48.031Z,97172.00
2022-09-16T13:31:50.789Z,97164.00
2022-09-16T13:36:53.711Z,97166.00
2022-09-16T13:41:57.009Z,97160.00
2022-09-16T13:47:12.314Z,97171.00
2022-09-16T13:52:22.208Z,97154.00
2022-09-16T13:57:27.952Z,97149.00
2022-09-16T14:02:48.862Z,97167.00
2022-09-16T14:07:59.550Z,97164.00
2022-09-16T14:13:12.863Z,97170.00
2022-09-16T14:18:18.956Z,97164.00
2022-09-16T14:23:23.815Z,97170.00
2022-09-16T14:28:30.049Z,97166.00
2022-09-16T14:33:46.191Z,97162.00
2022-09-16T14:38:58.257Z,97149.00
2022-09-16T14:44:17.331Z,97147.00
2022-09-16T14:49:20.756Z,97150.00
2022-09-16T14:54:25.497Z,97143.00
2022-09-16T14:59:40.304Z,97132.00
2022-09-16T15:04:47.183Z,97134.00
2022-09-16T15:10:02.102Z,97132.00
2022-09-16T15:15:25.852Z,97135.00
2022-09-16T15:20:51.698Z,97138.00
2022-09-16T15:26:07.458Z,97134.00
2022-09-16T15:31:12.923Z,97132.00
2022-09-16T15:36:36.544Z,97133.00
2022-09-16T15:41:39.339Z,97134.00
2022-09-16T15:46:47.279Z,97124.00
2022-09-16T15:51:51.796Z,97122.00
2022-09-16T15:56:54.370Z,97123.00
2022-09-16T16:02:00.829Z,97121.00
2022-09-16T16:07:06.091Z,97127.00
2022-09-16T16:12:16.936Z,97138.00
2022-09-16T16:17:24.008Z,97132.00
2022-09-16T16:22:27.058Z,97139.00
2022-09-16T16:27:29.689Z,97138.00
2022-09-16T16:32:32.370Z,97134.00
2022-09-16T16:37:45.833Z,97134.00
2022-09-16T16:42:49.690Z,97145.00
2022-09-16T16:47:53.352Z,97143.00
2022-09-16T16:52:56.062Z,97129.00
2022-09-16T16:57:58.753Z,97137.00
2022-09-16T17:03:01.485Z,97133.00
2022-09-16T17:08:04.266Z,97137.00
2022-09-16T17:13:06.958Z,97141.00
2022-09-16T17:18:09.776Z,97142.00
2022-09-16T17:23:12.495Z,97134.00
2022-09-16T17:28:16.817Z,97144.00
2022-09-16T17:33:19.776Z,97134.00
2022-09-16T17:38:22.420Z,97150.00
2022-09-16T17:43:31.405Z,97144.00
2022-09-16T17:48:37.591Z,97136.00
2022-09-16T17:53:40.660Z,97152.00
2022-09-16T17:58:49.926Z,97150.00
2022-09-16T18:03:54.806Z,97147.00
2022-09-16T18:09:00.636Z,97152.00
2022-09-16T18:14:05.857Z,97158.00
2022-09-16T18:19:09.543Z,97165.00
2022-09-16T18:24:13.290Z,97161.00
2022-09-16T18:29:16.038Z,97169.00
2022-09-16T18:34:18.686Z,97174.00
2022-09-16T18:39:21.322Z,97169.00
2022-09-16T18:44:24.236Z,97171.00
2022-09-16T18:49:29.082Z,97168.00
2022-09-16T18:54:33.189Z,97182.00
2022-09-16T18:59:36.812Z,97166.00
2022-09-16T19:04:41.684Z,97173.00
2022-09-16T19:09:46.293Z,97178.00
2022-09-16T19:14:52.090Z,97172.00
2022-09-16T19:19:55.532Z,97173.00
2022-09-16T19:24:58.220Z,97180.00
2022-09-16T19:30:01.006Z,97177.00
2022-09-16T19:35:03.950Z,97179.00
2022-09-16T19:40:06.934Z,97179.00
2022-09-16T19:45:10.411Z,97175.00
2022-09-16T19:50:13.288Z,97176.00
2022-09-16T19:55:16.026Z,97180.00
2022-09-16T20:00:18.777Z,97179.00
2022-09-16T20:05:21.481Z,97188.00
2022-09-16T20:10:24.320Z,97182.00
2022-09-16T20:15:27.240Z,97184.00
2022-09-16T20:20:30.170Z,97178.00
2022-09-16T20:25:33.120Z,97182.00
2022-09-16T20:30:35.788Z,97187.00
2022-09-16T20:35:38.489Z,97181.00
2022-09-16T20:40:44.867Z,97184.00
2022-09-16T20:45:47.842Z,97184.00
2022-09-16T20:50:52.994Z,97185.00
2022-09-16T20:56:01.978Z,97180.00
2022-09-16T21:01:08.543Z,97171.00
2022-09-16T21:06:15.776Z,97183.00
2022-09-16T21:11:19.694Z,97184.00
2022-09-16T21:16:23.259Z,97183.00
2022-09-16T21:21:28.172Z,97170.00
2022-09-16T21:26:35.574Z,97184.00
2022-09-16T21:31:40.003Z,97188.00
2022-09-16T21:36:44.736Z,97186.00
2022-09-16T21:41:48.768Z,97188.00
2022-09-16T21:46:54.229Z,97192.00
2022-09-16T21:51:58.874Z,97189.00
2022-09-16T21:57:01.549Z,97183.00
2022-09-16T22:02:04.322Z,97189.00
2022-09-16T22:07:10.856Z,97183.00
2022-09-16T22:12:13.920Z,97196.00
2022-09-16T22:17:18.489Z,97195.00
2022-09-16T22:22:21.656Z,97194.00
2022-09-16T22:27:24.370Z,97190.00
2022-09-16T22:32:28.252Z,97183.00
2022-09-16T22:37:30.952Z,97180.00
2022-09-16T22:42:33.690Z,97173.00
2022-09-16T22:47:36.727Z,97163.00
2022-09-16T22:52:39.498Z,97158.00
2022-09-16T22:57:42.104Z,97172.00
2022-09-16T23:02:44.780Z,97169.00
2022-09-16T23:07:49.697Z,97169.00
2022-09-16T23:12:52.352Z,97169.00
2022-09-16T23:17:55.086Z,97162.00
2022-09-16T23:22:57.866Z,97162.00
2022-09-16T23:28:00.539Z,97172.00
2022-09-16T23:33:03.246Z,97170.00
2022-09-16T23:38:05.887Z,97168.00
2022-09-16T23:43:09.701Z,97167.00
2022-09-16T23:48:12.819Z,97164.00
2022-09-16T23:53:15.645Z,97175.00
2022-09-16T23:58:18.692Z,97160.00
